createdAt,value
2023-02-24T00:01:29.401Z,99629.13
2023-02-24T00:04:39.977Z,99627.22
2023-02-24T00:07:42.401Z,99614.81
2023-02-24T00:10:45.068Z,99625.19
2023-02-24T00:13:47.651Z,99606.28
2023-02-24T00:16:50.249Z,99613.25
2023-02-24T00:19:52.979Z,99609.59
2023-02-24T00:22:55.361Z,99602.38
2023-02-24T00:26:00.706Z,99592.28
2023-02-24T00:29:06.236Z,99590.75
2023-02-24T00:32:13.345Z,99574.47
2023-02-24T00:35:16.047Z,99575.56
2023-02-24T00:38:18.342Z,99558.91
2023-02-24T00:41:22.619Z,99562.91
2023-02-24T00:44:29.771Z,99554.88
2023-02-24T00:47:33.808Z,99556.81
2023-02-24T00:50:39.194Z,99547.09
2023-02-24T00:53:41.461Z,99560.56
2023-02-24T00:56:45.451Z,99548.34
2023-02-24T00:59:47.900Z,99554.31
2023-02-24T01:02:50.328Z,99547.59
2023-02-24T01:05:53.364Z,99542.19
2023-02-24T01:08:57.756Z,99546.22
2023-02-24T01:12:38.485Z,99541.63
2023-02-24T01:15:42.460Z,99534.84
2023-02-24T01:18:48.153Z,99514.50
2023-02-24T01:21:55.337Z,99534.03
2023-02-24T01:24:57.676Z,99532.91
2023-02-24T01:27:59.949Z,99534.72
2023-02-24T01:31:05.561Z,99529.47
2023-02-24T01:34:10.924Z,99521.22
2023-02-24T01:37:16.640Z,99529.03
2023-02-24T01:40:21.910Z,99507.44
2023-02-24T01:43:24.578Z,99517.50
2023-02-24T01:46:27.629Z,99510.78
2023-02-24T01:49:37.799Z,99517.06
2023-02-24T01:52:40.565Z,99512.13
2023-02-24T01:55:50.098Z,99498.88
2023-02-24T01:58:52.959Z,99501.06
2023-02-24T02:02:04.466Z,99500.84
2023-02-24T02:05:10.077Z,99492.38
2023-02-24T02:08:13.785Z,99484.09
2023-02-24T02:11:21.087Z,99485.16
2023-02-24T02:14:26.536Z,99480.28
2023-02-24T02:18:03.771Z,99474.94
2023-02-24T02:21:15.425Z,99472.47
2023-02-24T02:24:44.832Z,99466.19
2023-02-24T02:27:49.923Z,99473.97
2023-02-24T02:31:12.788Z,99466.72
2023-02-24T02:34:35.952Z,99463.69
2023-02-24T02:37:59.116Z,99465.31
2023-02-24T02:41:17.336Z,99463.69
2023-02-24T02:44:45.094Z,99461.53
2023-02-24T02:47:54.529Z,99462.38
2023-02-24T02:51:09.180Z,99443.44
2023-02-24T02:54:19.972Z,99420.97
2023-02-24T02:57:25.868Z,99443.19
2023-02-24T03:00:35.508Z,99441.03
2023-02-24T03:03:42.874Z,99436.94
2023-02-24T03:06:49.004Z,99440.78
2023-02-24T03:09:56.677Z,99438.28
2023-02-24T03:13:00.994Z,99430.13
2023-02-24T03:16:04.882Z,99432.34
2023-02-24T03:19:09.321Z,99433.38
2023-02-24T03:22:19.834Z,99414.25
2023-02-24T03:25:28.846Z,99424.25
2023-02-24T03:28:41.851Z,99416.19
2023-02-24T03:31:48.028Z,99420.25
2023-02-24T03:34:55.296Z,99418.88
2023-02-24T03:37:59.480Z,99410.25
2023-02-24T03:41:01.929Z,99415.88
2023-02-24T03:44:09.743Z,99410.25
2023-02-24T03:47:13.483Z,99410.75
2023-02-24T03:50:19.157Z,99402.94
2023-02-24T03:53:32.300Z,99391.81
2023-02-24T03:56:56.337Z,99397.84
2023-02-24T04:00:22.872Z,99395.13
2023-02-24T04:03:49.639Z,99389.50
2023-02-24T04:07:04.464Z,99385.75
2023-02-24T04:10:15.520Z,99375.78
2023-02-24T04:13:44.391Z,99383.06
2023-02-24T04:17:09.085Z,99377.38
2023-02-24T04:20:16.492Z,99379.56
2023-02-24T04:23:27.887Z,99379.84
2023-02-24T04:26:31.274Z,99374.19
2023-02-24T04:29:38.768Z,99368.25
2023-02-24T04:32:44.368Z,99359.56
2023-02-24T04:35:53.514Z,99367.34
2023-02-24T04:38:57.335Z,99357.19
2023-02-24T04:42:01.813Z,99363.28
2023-02-24T04:45:10.030Z,99348.16
2023-02-24T04:48:13.154Z,99351.84
2023-02-24T04:51:15.875Z,99356.78
2023-02-24T04:54:20.540Z,99357.09
2023-02-24T04:57:22.955Z,99355.66
2023-02-24T05:00:26.786Z,99340.53
2023-02-24T05:03:30.171Z,99345.97
2023-02-24T05:06:33.024Z,99349.25
2023-02-24T05:09:35.338Z,99334.84
2023-02-24T05:12:40.189Z,99334.31
2023-02-24T05:15:44.741Z,99330.09
2023-02-24T05:18:47.390Z,99325.50
2023-02-24T05:21:49.715Z,99333.00
2023-02-24T05:24:52.202Z,99312.13
2023-02-24T05:27:56.806Z,99327.91
2023-02-24T05:31:15.100Z,99321.38
2023-02-24T05:34:17.915Z,99329.44
2023-02-24T05:37:20.412Z,99308.66
2023-02-24T05:40:25.069Z,99316.84
2023-02-24T05:43:27.379Z,99316.53
2023-02-24T05:46:32.816Z,99325.41
2023-02-24T05:49:36.314Z,99298.91
2023-02-24T05:52:38.768Z,99312.72
2023-02-24T05:55:41.065Z,99316.53
2023-02-24T05:58:45.287Z,99316.28
2023-02-24T06:01:48.581Z,99323.53
2023-02-24T06:04:51.616Z,99317.38
2023-02-24T06:08:06.583Z,99309.84
2023-02-24T06:11:10.551Z,99307.66
2023-02-24T06:14:13.014Z,99312.00
2023-02-24T06:17:18.837Z,99293.03
2023-02-24T06:20:22.450Z,99300.41
2023-02-24T06:23:27.068Z,99300.38
2023-02-24T06:26:30.033Z,99298.44
2023-02-24T06:29:33.283Z,99297.63
2023-02-24T06:32:36.313Z,99294.97
2023-02-24T06:35:39.051Z,99287.94
2023-02-24T06:38:42.009Z,99291.75
2023-02-24T06:41:44.373Z,99297.47
2023-02-24T06:44:47.490Z,99291.19
2023-02-24T06:47:49.852Z,99284.28
2023-02-24T06:50:52.110Z,99286.63
2023-02-24T06:53:56.018Z,99275.88
2023-02-24T06:57:01.245Z,99280.50
2023-02-24T07:00:17.335Z,99274.28
2023-02-24T07:03:20.983Z,99276.19
2023-02-24T07:06:26.319Z,99272.69
2023-02-24T07:09:29.797Z,99267.81
2023-02-24T07:12:32.228Z,99265.69
2023-02-24T07:15:37.157Z,99266.25
2023-02-24T07:18:43.080Z,99260.53
2023-02-24T07:21:52.882Z,99262.41
2023-02-24T07:25:00.657Z,99259.19
2023-02-24T07:28:03.300Z,99251.59
2023-02-24T07:31:09.359Z,99258.09
2023-02-24T07:34:15.159Z,99251.88
2023-02-24T07:37:19.780Z,99248.59
2023-02-24T07:40:22.534Z,99249.16
2023-02-24T07:43:24.937Z,99236.66
2023-02-24T07:46:28.490Z,99231.31
2023-02-24T07:49:31.946Z,99217.06
2023-02-24T07:52:34.487Z,99223.53
2023-02-24T07:55:37.040Z,99222.19
2023-02-24T07:58:42.223Z,99198.16
2023-02-24T08:01:49.906Z,99220.03
2023-02-24T08:04:52.789Z,99222.19
2023-02-24T08:07:57.112Z,99222.44
2023-02-24T08:11:04.211Z,99217.34
2023-02-24T08:14:11.062Z,99211.38
2023-02-24T08:17:19.996Z,99205.75
2023-02-24T08:20:22.455Z,99198.41
2023-02-24T08:23:25.834Z,99201.91
2023-02-24T08:26:31.789Z,99192.75
2023-02-24T08:29:40.458Z,99190.59
2023-02-24T08:32:45.029Z,99180.03
2023-02-24T08:35:52.146Z,99175.75
2023-02-24T08:38:59.423Z,99171.13
2023-02-24T08:42:01.866Z,99174.41
2023-02-24T08:45:04.950Z,99175.22
2023-02-24T08:48:18.450Z,99171.16
2023-02-24T08:51:29.031Z,99169.53
2023-02-24T08:54:32.259Z,99165.97
2023-02-24T08:57:36.091Z,99157.63
2023-02-24T09:00:50.580Z,99168.94
2023-02-24T09:03:56.929Z,99162.19
2023-02-24T09:07:11.219Z,99176.44
2023-02-24T09:10:19.595Z,99171.06
2023-02-24T09:13:22.321Z,99161.91
2023-02-24T09:16:25.436Z,99143.00
2023-02-24T09:19:40.670Z,99161.63
2023-02-24T09:22:57.481Z,99149.44
2023-02-24T09:26:11.312Z,99155.91
2023-02-24T09:29:33.389Z,99157.38
2023-02-24T09:32:35.961Z,99148.59
2023-02-24T09:35:42.210Z,99151.31
2023-02-24T09:38:59.940Z,99151.91
2023-02-24T09:42:08.622Z,99147.84
2023-02-24T09:45:19.368Z,99140.06
2023-02-24T09:48:29.754Z,99131.59
2023-02-24T09:51:42.605Z,99128.56
2023-02-24T09:55:16.107Z,99126.03
2023-02-24T09:58:44.067Z,99125.91
2023-02-24T10:02:06.599Z,99128.47
2023-02-24T10:05:47.395Z,99127.38
2023-02-24T10:08:59.121Z,99107.78
2023-02-24T10:12:40.310Z,99111.59
2023-02-24T10:15:57.701Z,99111.41
2023-02-24T10:19:25.598Z,99123.09
2023-02-24T10:22:40.574Z,99104.84
2023-02-24T10:25:54.561Z,99109.16
2023-02-24T10:29:22.842Z,99105.13
2023-02-24T10:32:34.231Z,99101.06
2023-02-24T10:35:36.984Z,99102.69
2023-02-24T10:38:45.759Z,99089.97
2023-02-24T10:41:57.514Z,99087.06
2023-02-24T10:45:17.563Z,99088.50
2023-02-24T10:48:40.782Z,99079.00
2023-02-24T10:51:50.034Z,99080.81
2023-02-24T10:55:08.645Z,99084.88
2023-02-24T10:58:52.736Z,99073.56
2023-02-24T11:02:06.674Z,99077.22
2023-02-24T11:05:38.745Z,99076.41
2023-02-24T11:08:54.561Z,99062.63
2023-02-24T11:12:31.100Z,99046.69
2023-02-24T11:15:55.062Z,99059.56
2023-02-24T11:18:58.090Z,99040.59
2023-02-24T11:22:00.768Z,99024.09
2023-02-24T11:25:23.184Z,99040.25
2023-02-24T11:28:34.705Z,99036.09
2023-02-24T11:32:02.343Z,99027.00
2023-02-24T11:35:32.376Z,99027.16
2023-02-24T11:39:15.248Z,99019.78
2023-02-24T11:42:25.572Z,99008.03
2023-02-24T11:45:33.730Z,99000.41
2023-02-24T11:48:47.245Z,98996.41
2023-02-24T11:51:50.414Z,98991.06
2023-02-24T11:54:55.901Z,98982.63
2023-02-24T11:57:59.406Z,98984.13
2023-02-24T12:01:26.829Z,98995.09
2023-02-24T12:04:29.460Z,98991.34
2023-02-24T12:07:36.017Z,98981.81
2023-02-24T12:10:47.635Z,98975.72
2023-02-24T12:13:54.951Z,98978.84
2023-02-24T12:17:10.666Z,98969.41
2023-02-24T12:20:40.531Z,98962.59
2023-02-24T12:23:45.280Z,98933.84
2023-02-24T12:27:06.562Z,98964.31
2023-02-24T12:30:38.832Z,98941.28
2023-02-24T12:33:50.764Z,98949.22
2023-02-24T12:39:40.950Z,98941.41
2023-02-24T12:43:25.462Z,98935.22
2023-02-24T12:46:37.196Z,98931.28
2023-02-24T12:50:16.786Z,98933.25
2023-02-24T12:53:43.565Z,98927.22
2023-02-24T12:56:57.781Z,98923.78
2023-02-24T13:00:06.492Z,98910.13
2023-02-24T13:03:34.088Z,98920.59
2023-02-24T13:06:58.261Z,98914.16
2023-02-24T13:10:24.253Z,98904.19
2023-02-24T13:13:41.027Z,98902.81
2023-02-24T13:16:43.607Z,98916.72
2023-02-24T13:19:48.844Z,98906.16
2023-02-24T13:22:51.183Z,98889.25
2023-02-24T13:25:55.250Z,98903.25
2023-02-24T13:29:13.325Z,98894.97
2023-02-24T13:32:24.652Z,98885.00
2023-02-24T13:35:26.872Z,98902.13
2023-02-24T13:38:32.178Z,98901.22
2023-02-24T13:41:40.821Z,98895.16
2023-02-24T13:44:50.404Z,98882.53
2023-02-24T13:48:11.133Z,98879.50
2023-02-24T13:51:19.453Z,98874.34
2023-02-24T13:54:34.617Z,98872.22
2023-02-24T13:57:51.695Z,98865.63
2023-02-24T14:01:14.803Z,98871.81
2023-02-24T14:04:29.301Z,98872.63
2023-02-24T14:07:35.612Z,98868.03
2023-02-24T14:10:38.948Z,98851.09
2023-02-24T14:13:46.210Z,98851.81
2023-02-24T14:16:50.868Z,98840.53
2023-02-24T14:19:53.193Z,98837.66
2023-02-24T14:22:58.964Z,98836.88
2023-02-24T14:26:05.370Z,98832.84
2023-02-24T14:29:08.275Z,98831.78
2023-02-24T14:32:20.901Z,98826.38
2023-02-24T14:35:37.851Z,98830.69
2023-02-24T14:38:41.866Z,98821.28
2023-02-24T14:41:45.695Z,98824.75
2023-02-24T14:44:51.198Z,98809.38
2023-02-24T14:47:57.293Z,98816.69
2023-02-24T14:51:04.425Z,98806.97
2023-02-24T14:54:12.526Z,98805.56
2023-02-24T14:57:27.068Z,98804.31
2023-02-24T15:00:34.324Z,98785.38
2023-02-24T15:03:45.810Z,98788.91
2023-02-24T15:06:49.309Z,98778.72
2023-02-24T15:09:52.700Z,98763.91
2023-02-24T15:13:00.984Z,98761.72
2023-02-24T15:16:15.927Z,98775.84
2023-02-24T15:19:44.375Z,98771.09
2023-02-24T15:22:50.347Z,98755.13
2023-02-24T15:25:52.846Z,98761.19
2023-02-24T15:29:19.852Z,98745.13
2023-02-24T15:32:24.126Z,98766.19
2023-02-24T15:35:26.614Z,98749.81
2023-02-24T15:38:34.679Z,98751.41
2023-02-24T15:41:46.010Z,98738.78
2023-02-24T15:44:56.853Z,98743.28
2023-02-24T15:48:03.791Z,98728.28
2023-02-24T15:51:06.456Z,98736.66
2023-02-24T15:54:32.948Z,98731.81
2023-02-24T15:57:35.815Z,98721.53
2023-02-24T16:00:38.262Z,98737.84
2023-02-24T16:03:41.110Z,98720.41
2023-02-24T16:06:54.438Z,98714.41
2023-02-24T16:09:58.233Z,98718.41
2023-02-24T16:13:01.846Z,98726.72
2023-02-24T16:16:06.411Z,98713.25
2023-02-24T16:19:10.733Z,98719.91
2023-02-24T16:22:13.128Z,98705.47
2023-02-24T16:25:17.429Z,98696.00
2023-02-24T16:28:21.780Z,98706.72
2023-02-24T16:31:25.876Z,98707.28
2023-02-24T16:34:28.161Z,98701.69
2023-02-24T16:37:30.922Z,98694.38
2023-02-24T16:40:37.728Z,98689.59
2023-02-24T16:43:40.432Z,98692.88
2023-02-24T16:46:42.856Z,98694.44
2023-02-24T16:49:45.267Z,98696.00
2023-02-24T16:52:48.616Z,98699.97
2023-02-24T16:55:51.105Z,98686.41
2023-02-24T16:58:53.390Z,98685.53
2023-02-24T17:01:56.004Z,98686.56
2023-02-24T17:04:58.791Z,98683.63
2023-02-24T17:08:01.130Z,98688.00
2023-02-24T17:11:04.137Z,98685.03
2023-02-24T17:14:06.753Z,98684.72
2023-02-24T17:17:09.795Z,98671.88
2023-02-24T17:20:16.698Z,98673.63
2023-02-24T17:23:19.169Z,98668.16
2023-02-24T17:26:22.072Z,98661.78
2023-02-24T17:29:25.101Z,98652.94
2023-02-24T17:32:28.332Z,98655.28
2023-02-24T17:35:30.751Z,98645.44
2023-02-24T17:38:33.072Z,98645.56
2023-02-24T17:41:35.969Z,98629.94
2023-02-24T17:44:38.383Z,98624.13
2023-02-24T17:47:40.725Z,98622.47
2023-02-24T17:50:43.495Z,98618.72
2023-02-24T17:53:46.141Z,98611.91
2023-02-24T17:56:48.382Z,98609.28
2023-02-24T17:59:51.087Z,98603.91
2023-02-24T18:02:54.107Z,98591.56
2023-02-24T18:06:13.143Z,98590.19
2023-02-24T18:09:15.593Z,98581.06
2023-02-24T18:12:19.061Z,98578.38
2023-02-24T18:15:21.529Z,98573.53
2023-02-24T18:18:24.367Z,98572.19
2023-02-24T18:21:26.703Z,98566.00
2023-02-24T18:24:29.399Z,98549.56
2023-02-24T18:27:31.723Z,98560.09
2023-02-24T18:30:34.078Z,98561.16
2023-02-24T18:33:36.587Z,98549.88
2023-02-24T18:36:38.932Z,98542.88
2023-02-24T18:39:41.115Z,98549.88
2023-02-24T18:42:44.099Z,98540.47
2023-02-24T18:45:47.715Z,98541.81
2023-02-24T18:48:50.950Z,98536.72
2023-02-24T18:51:53.538Z,98537.78
2023-02-24T18:54:55.916Z,98529.97
2023-02-24T18:57:58.332Z,98532.66
2023-02-24T19:01:00.705Z,98520.31
2023-02-24T19:04:03.460Z,98525.13
2023-02-24T19:07:07.416Z,98520.28
2023-02-24T19:10:09.918Z,98521.59
2023-02-24T19:13:12.627Z,98512.47
2023-02-24T19:16:15.704Z,98507.13
2023-02-24T19:19:18.084Z,98499.56
2023-02-24T19:22:20.316Z,98505.22
2023-02-24T19:25:22.852Z,98492.28
2023-02-24T19:28:25.141Z,98487.47
2023-02-24T19:31:28.814Z,98482.63
2023-02-24T19:34:31.369Z,98475.63
2023-02-24T19:37:33.724Z,98474.53
2023-02-24T19:40:36.463Z,98480.75
2023-02-24T19:43:38.867Z,98479.91
2023-02-24T19:46:41.308Z,98476.97
2023-02-24T19:49:43.590Z,98472.38
2023-02-24T19:52:45.880Z,98465.97
2023-02-24T19:55:49.308Z,98468.09
2023-02-24T19:58:55.083Z,98459.50
2023-02-24T20:01:57.406Z,98454.91
2023-02-24T20:04:59.983Z,98458.94
2023-02-24T20:08:02.446Z,98454.31
2023-02-24T20:11:05.540Z,98449.00
2023-02-24T20:14:08.098Z,98452.53
2023-02-24T20:17:10.435Z,98447.66
2023-02-24T20:20:13.253Z,98445.47
2023-02-24T20:23:15.653Z,98442.28
2023-02-24T20:26:18.369Z,98439.03
2023-02-24T20:29:21.601Z,98435.25
2023-02-24T20:32:24.130Z,98439.31
2023-02-24T20:35:26.623Z,98427.72
2023-02-24T20:38:29.376Z,98431.00
2023-02-24T20:41:31.656Z,98422.94
2023-02-24T20:44:34.018Z,98425.03
2023-02-24T20:47:36.776Z,98423.97
2023-02-24T20:50:39.114Z,98411.88
2023-02-24T20:53:56.097Z,98412.72
2023-02-24T20:56:59.479Z,98409.72
2023-02-24T21:00:07.496Z,98400.06
2023-02-24T21:03:12.614Z,98396.81
2023-02-24T21:06:15.706Z,98398.16
2023-02-24T21:09:18.308Z,98399.78
2023-02-24T21:12:20.608Z,98390.06
2023-02-24T21:15:22.968Z,98382.84
2023-02-24T21:18:25.312Z,98385.25
2023-02-24T21:21:27.826Z,98384.72
2023-02-24T21:24:30.876Z,98379.81
2023-02-24T21:27:33.177Z,98388.47
2023-02-24T21:30:35.753Z,98383.13
2023-02-24T21:33:38.366Z,98377.19
2023-02-24T21:36:40.693Z,98368.59
2023-02-24T21:39:42.882Z,98374.75
2023-02-24T21:42:47.155Z,98369.09
2023-02-24T21:45:49.821Z,98355.91
2023-02-24T21:48:58.355Z,98353.00
2023-02-24T21:52:00.626Z,98350.84
2023-02-24T21:55:02.888Z,98342.75
2023-02-24T21:58:05.160Z,98332.50
2023-02-24T22:01:11.191Z,98326.34
2023-02-24T22:04:15.383Z,98325.75
2023-02-24T22:07:17.647Z,98328.25
2023-02-24T22:10:20.934Z,98318.56
2023-02-24T22:13:23.158Z,98321.19
2023-02-24T22:16:26.089Z,98313.97
2023-02-24T22:19:28.785Z,98308.00
2023-02-24T22:22:31.256Z,98304.53
2023-02-24T22:25:35.743Z,98297.00
2023-02-24T22:28:39.158Z,98293.25
2023-02-24T22:31:43.937Z,98297.22
2023-02-24T22:34:46.377Z,98292.59
2023-02-24T22:37:48.543Z,98287.84
2023-02-24T22:41:00.223Z,98288.28
2023-02-24T22:44:03.711Z,98289.38
2023-02-24T22:47:05.991Z,98281.84
2023-02-24T22:50:08.720Z,98284.59
2023-02-24T22:53:11.348Z,98286.50
2023-02-24T22:56:14.172Z,98286.75
2023-02-24T22:59:16.484Z,98293.09
2023-02-24T23:02:18.660Z,98294.22
2023-02-24T23:05:20.945Z,98289.41
2023-02-24T23:08:23.778Z,98277.03
2023-02-24T23:11:27.924Z,98278.63
2023-02-24T23:14:30.634Z,98284.34
2023-02-24T23:17:32.796Z,98272.50
2023-02-24T23:20:34.916Z,98275.41
2023-02-24T23:23:37.587Z,98262.03
2023-02-24T23:26:42.008Z,98253.97
2023-02-24T23:29:44.225Z,98257.16
2023-02-24T23:32:46.518Z,98252.38
2023-02-24T23:35:49.133Z,98256.19
2023-02-24T23:38:51.386Z,98248.16
2023-02-24T23:41:57.629Z,98251.38
2023-02-24T23:44:59.957Z,98248.41
2023-02-24T23:48:02.105Z,98239.56
2023-02-24T23:51:05.252Z,98238.75
2023-02-24T23:54:07.530Z,98233.63
2023-02-24T23:57:10.149Z,98228.78
